Time;durP1;ratioP1;P1;durP2;ratioP2;P2;SDS_P1;SDS_P2;PMS_P1;PMS_P2;Temp;Humidity;BMP_temperature;BMP_pressure;BME280_temperature;BME280_humidity;BME280_pressure;Samples;Min_cycle;Max_cycle;Signal;HPM_P1;HPM_P2
2022/12/23 00:04:11;;;;;;;11.40;4.80;;;22.30;59.90;;;;;;211899;1310;22541;-60
2022/12/23 00:09:16;;;;;;;10.50;5.00;;;22.30;60.40;;;;;;211969;1310;25521;-60
2022/12/23 00:19:43;;;;;;;10.70;4.60;;;22.60;59.10;;;;;;211485;1304;24409;-59
2022/12/23 00:24:47;;;;;;;11.30;4.70;;;22.60;58.90;;;;;;211695;1312;23808;-59
2022/12/23 00:29:51;;;;;;;10.00;4.30;;;22.70;58.60;;;;;;211643;1306;22692;-60
2022/12/23 00:34:55;;;;;;;10.40;3.50;;;22.80;58.50;;;;;;213722;1312;22479;-60
2022/12/23 00:45:22;;;;;;;9.80;3.80;;;22.90;58.20;;;;;;211484;1311;23321;-58
2022/12/23 00:50:27;;;;;;;10.20;3.40;;;22.90;57.90;;;;;;217727;1294;22617;-59
2022/12/23 00:55:31;;;;;;;8.20;3.40;;;23.00;58.10;;;;;;211685;1311;25360;-60
2022/12/23 01:05:59;;;;;;;7.20;2.90;;;23.00;57.50;;;;;;217840;1309;22490;-60
2022/12/23 01:11:05;;;;;;;8.70;4.00;;;22.90;57.50;;;;;;211402;1302;22572;-60
2022/12/23 01:16:10;;;;;;;8.30;3.50;;;22.90;58.50;;;;;;213159;1309;24439;-61
2022/12/23 01:21:20;;;;;;;8.30;3.70;;;22.80;57.80;;;;;;212120;1316;22497;-60
2022/12/23 01:26:24;;;;;;;7.20;3.30;;;22.70;57.90;;;;;;212192;1300;22641;-60
2022/12/23 01:31:28;;;;;;;10.10;3.80;;;22.60;58.30;;;;;;212024;1302;22729;-59
2022/12/23 01:36:32;;;;;;;7.30;3.30;;;22.60;57.90;;;;;;212106;1314;22497;-59
2022/12/23 01:46:59;;;;;;;5.80;2.80;;;22.40;58.00;;;;;;212096;1315;22591;-61
2022/12/23 01:52:03;;;;;;;5.30;2.70;;;22.40;58.10;;;;;;211988;1309;22550;-60
2022/12/23 01:57:07;;;;;;;7.10;3.30;;;22.30;58.20;;;;;;211699;1316;25384;-62
2022/12/23 02:16:15;;;;;;;8.70;3.00;;;22.10;58.50;;;;;;211865;1306;22466;-59
2022/12/23 02:19:20;;;;;;;5.60;3.20;;;22.00;58.50;;;;;;210323;1323;22526;-57
2022/12/23 02:24:40;;;;;;;7.10;3.40;;;22.00;58.40;;;;;;210444;1321;22662;-57
2022/12/23 02:29:49;;;;;;;7.70;3.00;;;21.90;59.00;;;;;;210238;1319;22874;-61
2022/12/23 02:35:21;;;;;;;4.60;2.60;;;21.90;58.40;;;;;;210322;1318;22502;-61
2022/12/23 02:40:41;;;;;;;7.40;3.00;;;21.90;58.40;;;;;;210753;1312;22688;-61
2022/12/23 02:45:45;;;;;;;6.20;2.80;;;21.80;58.30;;;;;;210546;1309;24177;-59
2022/12/23 02:50:51;;;;;;;5.90;2.60;;;21.80;58.40;;;;;;210843;1316;22474;-63
2022/12/23 02:55:58;;;;;;;5.70;2.70;;;21.70;58.50;;;;;;211843;1317;25309;-61
2022/12/23 03:01:05;;;;;;;5.60;2.60;;;21.70;59.00;;;;;;212166;1297;22735;-58
2022/12/23 03:06:37;;;;;;;4.80;2.40;;;21.70;58.80;;;;;;211828;1293;22743;-59
2022/12/23 03:11:41;;;;;;;6.60;3.00;;;21.70;58.70;;;;;;211945;1316;22594;-63
2022/12/23 03:17:23;;;;;;;5.80;2.60;;;21.60;58.70;;;;;;211840;1316;22519;-60
2022/12/23 03:22:58;;;;;;;5.90;2.70;;;21.60;58.70;;;;;;212112;1309;22533;-59
2022/12/23 03:28:17;;;;;;;5.20;2.70;;;21.50;59.20;;;;;;212146;1312;22609;-57
2022/12/23 03:33:27;;;;;;;5.10;2.40;;;21.40;58.50;;;;;;212081;1310;22979;-59
2022/12/23 03:38:34;;;;;;;8.50;2.80;;;21.40;59.10;;;;;;211824;1312;23153;-58
2022/12/23 03:44:04;;;;;;;6.60;2.90;;;21.40;58.80;;;;;;211970;1302;22426;-59
2022/12/23 03:49:15;;;;;;;4.20;2.30;;;21.30;58.70;;;;;;216653;1310;22478;-60
2022/12/23 03:54:26;;;;;;;5.00;2.40;;;21.40;58.80;;;;;;213734;1313;24398;-61
2022/12/23 03:59:35;;;;;;;5.60;2.50;;;21.70;58.40;;;;;;211944;1303;24248;-60
2022/12/23 04:04:45;;;;;;;4.50;2.60;;;22.00;57.70;;;;;;211803;1302;22561;-60
2022/12/23 04:09:52;;;;;;;6.00;2.60;;;22.30;57.20;;;;;;212023;1317;25141;-60
2022/12/23 04:14:56;;;;;;;3.90;2.10;;;22.40;56.90;;;;;;212061;1316;22470;-60
2022/12/23 04:20:00;;;;;;;4.40;2.20;;;22.60;56.40;;;;;;212006;1300;24295;-61
2022/12/23 04:25:05;;;;;;;5.20;2.60;;;22.70;56.30;;;;;;211991;1299;25213;-58
2022/12/23 04:30:12;;;;;;;7.60;2.70;;;22.80;56.00;;;;;;211841;1316;23165;-59
2022/12/23 04:35:16;;;;;;;5.90;2.70;;;22.90;55.70;;;;;;211867;1309;25541;-60
2022/12/23 04:40:20;;;;;;;5.50;2.60;;;22.90;55.70;;;;;;212079;1300;24613;-62
2022/12/23 04:45:24;;;;;;;3.70;2.00;;;22.90;55.30;;;;;;212109;1302;22599;-60
2022/12/23 04:50:29;;;;;;;3.90;2.10;;;22.90;55.70;;;;;;211969;1303;23532;-60
2022/12/23 04:55:33;;;;;;;5.60;2.40;;;23.00;55.40;;;;;;211976;1316;22486;-58
2022/12/23 05:00:37;;;;;;;5.40;2.30;;;23.00;55.40;;;;;;212030;1316;22657;-59
2022/12/23 05:05:43;;;;;;;3.70;2.30;;;23.00;55.20;;;;;;211775;1306;22549;-60
2022/12/23 05:10:47;;;;;;;3.70;2.10;;;23.10;55.40;;;;;;211937;1315;22601;-61
2022/12/23 05:15:53;;;;;;;4.20;2.00;;;23.10;54.60;;;;;;211946;1315;22530;-60
2022/12/23 05:20:57;;;;;;;4.40;2.10;;;23.10;54.90;;;;;;211690;1301;22471;-59
2022/12/23 05:26:01;;;;;;;3.70;2.10;;;23.10;55.10;;;;;;211931;1315;22470;-60
2022/12/23 05:31:07;;;;;;;4.80;2.10;;;23.00;55.60;;;;;;212400;1303;22652;-61
2022/12/23 05:36:11;;;;;;;4.20;1.80;;;22.90;55.50;;;;;;212111;1305;22477;-64
2022/12/23 05:41:16;;;;;;;3.90;2.00;;;22.80;55.60;;;;;;211907;1314;24193;-61
2022/12/23 05:46:19;;;;;;;4.00;2.00;;;22.70;55.50;;;;;;212013;1312;22597;-62
2022/12/23 05:51:29;;;;;;;4.60;2.50;;;22.70;55.70;;;;;;211696;1315;22525;-61
2022/12/23 05:56:33;;;;;;;3.60;2.00;;;22.60;55.90;;;;;;211692;1312;22715;-61
2022/12/23 06:01:38;;;;;;;3.60;2.40;;;22.50;56.60;;;;;;211953;1296;24308;-60
2022/12/23 06:06:43;;;;;;;4.70;2.10;;;22.50;56.10;;;;;;211953;1303;22531;-61
2022/12/23 06:11:47;;;;;;;3.40;2.20;;;22.40;56.60;;;;;;211892;1317;22691;-60
2022/12/23 06:16:51;;;;;;;4.20;2.10;;;22.30;56.60;;;;;;211950;1317;23069;-61
2022/12/23 06:21:55;;;;;;;3.80;2.10;;;22.20;56.30;;;;;;212060;1300;22691;-61
2022/12/23 06:26:59;;;;;;;3.00;1.70;;;22.20;56.80;;;;;;211593;1299;24295;-60
2022/12/23 06:32:03;;;;;;;3.60;1.90;;;22.10;56.90;;;;;;211924;1314;22493;-59
2022/12/23 06:37:08;;;;;;;3.40;2.10;;;22.10;56.90;;;;;;212182;1298;24343;-60
2022/12/23 06:42:13;;;;;;;5.00;2.20;;;22.00;57.20;;;;;;211959;1303;22529;-60
2022/12/23 06:47:17;;;;;;;4.20;2.30;;;22.00;57.20;;;;;;211962;1310;25524;-60
2022/12/23 06:52:21;;;;;;;6.20;2.10;;;21.90;57.50;;;;;;211758;1311;23874;-60
2022/12/23 06:57:25;;;;;;;7.70;2.50;;;21.90;57.50;;;;;;211791;1299;22485;-61
2022/12/23 07:02:30;;;;;;;8.20;2.00;;;21.90;58.10;;;;;;212045;1312;22472;-63
2022/12/23 07:07:34;;;;;;;4.50;2.00;;;21.90;58.70;;;;;;212029;1306;22954;-61
2022/12/23 07:12:39;;;;;;;3.60;1.90;;;21.90;58.40;;;;;;212050;1316;24258;-61
2022/12/23 07:17:48;;;;;;;4.80;2.00;;;21.90;58.50;;;;;;211844;1303;22510;-65
2022/12/23 07:22:56;;;;;;;8.20;2.70;;;21.90;59.10;;;;;;212014;1299;22498;-59
2022/12/23 07:28:00;;;;;;;6.40;1.80;;;21.90;59.10;;;;;;211977;1306;24318;-61
2022/12/23 07:33:04;;;;;;;11.40;2.30;;;21.90;58.90;;;;;;211934;1305;22541;-56
2022/12/23 07:38:09;;;;;;;4.60;2.30;;;21.80;59.00;;;;;;211840;1302;22498;-56
2022/12/23 07:43:13;;;;;;;9.20;2.40;;;21.80;58.90;;;;;;211930;1300;23307;-55
2022/12/23 07:48:17;;;;;;;4.50;2.40;;;21.70;58.60;;;;;;220691;1308;22123;-52
2022/12/23 07:53:20;;;;;;;8.10;2.40;;;21.60;58.40;;;;;;213340;1310;25377;-57
2022/12/23 07:58:24;;;;;;;10.00;1.90;;;21.60;58.80;;;;;;212143;1301;22498;-58
2022/12/23 08:03:29;;;;;;;8.10;2.50;;;21.50;58.50;;;;;;212069;1316;22569;-57
2022/12/23 08:08:34;;;;;;;8.00;2.90;;;21.50;58.30;;;;;;211850;1312;25387;-59
2022/12/23 08:13:40;;;;;;;8.00;2.80;;;21.40;58.00;;;;;;211937;1310;23223;-60
2022/12/23 08:18:44;;;;;;;5.80;2.50;;;21.40;58.20;;;;;;211748;1315;24434;-59
2022/12/23 08:23:50;;;;;;;6.80;2.30;;;21.30;58.30;;;;;;211876;1306;24329;-58
2022/12/23 08:28:54;;;;;;;7.00;2.40;;;21.30;58.20;;;;;;211915;1297;22475;-58
2022/12/23 08:34:00;;;;;;;6.70;3.00;;;21.30;58.60;;;;;;211915;1315;22498;-59
2022/12/23 08:39:07;;;;;;;3.80;2.20;;;21.30;58.20;;;;;;211826;1295;22717;-59
2022/12/23 08:44:14;;;;;;;5.20;2.40;;;21.20;58.10;;;;;;211610;1315;22595;-58
2022/12/23 08:49:19;;;;;;;5.70;2.40;;;21.30;58.10;;;;;;211778;1300;22667;-59
2022/12/23 08:54:24;;;;;;;4.50;2.30;;;21.60;57.60;;;;;;211773;1303;22541;-58
2022/12/23 08:59:28;;;;;;;5.20;2.10;;;21.80;57.10;;;;;;212126;1310;22473;-59
2022/12/23 09:04:32;;;;;;;4.00;2.00;;;22.00;56.60;;;;;;211845;1309;23013;-59
2022/12/23 09:09:37;;;;;;;3.80;2.10;;;22.20;55.90;;;;;;211902;1296;22476;-60
2022/12/23 09:14:46;;;;;;;4.00;2.10;;;22.30;55.50;;;;;;211997;1296;24251;-59
2022/12/23 09:19:50;;;;;;;3.10;1.80;;;22.40;55.30;;;;;;211798;1314;25268;-59
2022/12/23 09:24:56;;;;;;;3.70;2.00;;;22.50;55.10;;;;;;212012;1315;22630;-59
2022/12/23 09:30:09;;;;;;;3.60;1.90;;;22.50;55.20;;;;;;211627;1311;22764;-58
2022/12/23 09:35:13;;;;;;;3.00;1.80;;;22.60;54.70;;;;;;211843;1297;22503;-59
2022/12/23 09:40:20;;;;;;;3.80;2.40;;;22.60;54.50;;;;;;211743;1305;22490;-59
2022/12/23 09:45:51;;;;;;;3.60;2.30;;;22.70;54.40;;;;;;211827;1316;22501;-59
2022/12/23 09:50:55;;;;;;;8.40;2.20;;;22.80;54.30;;;;;;211638;1296;22546;-58
2022/12/23 09:56:12;;;;;;;5.30;2.20;;;22.70;54.30;;;;;;211672;1315;25581;-59
2022/12/23 10:01:19;;;;;;;138.90;45.40;;;22.60;54.70;;;;;;211620;1315;24321;-57
2022/12/23 10:06:28;;;;;;;190.00;59.10;;;22.50;54.90;;;;;;211278;1309;22771;-55
2022/12/23 10:11:36;;;;;;;295.10;91.70;;;22.60;55.20;;;;;;211462;1296;22986;-58
2022/12/23 10:16:48;;;;;;;296.70;92.30;;;22.60;55.40;;;;;;211573;1302;25673;-60
2022/12/23 10:21:58;;;;;;;264.80;80.50;;;22.70;55.00;;;;;;211951;1296;24453;-57
2022/12/23 10:27:13;;;;;;;214.90;69.10;;;22.70;54.80;;;;;;211700;1309;22529;-58
2022/12/23 10:32:23;;;;;;;225.10;69.30;;;22.80;54.30;;;;;;211600;1289;25243;-60
2022/12/23 10:37:36;;;;;;;220.40;72.20;;;22.90;55.00;;;;;;210751;1307;22493;-60
2022/12/23 10:43:02;;;;;;;213.90;70.30;;;22.90;54.60;;;;;;210767;1315;24351;-58
2022/12/23 10:48:12;;;;;;;203.30;67.70;;;22.90;54.60;;;;;;210381;1313;22501;-60
2022/12/23 10:53:44;;;;;;;194.70;65.40;;;23.00;54.80;;;;;;210552;1317;23452;-58
2022/12/23 10:58:58;;;;;;;184.80;63.80;;;23.10;54.90;;;;;;210891;1302;24260;-58
2022/12/23 11:04:12;;;;;;;179.60;59.90;;;23.10;54.90;;;;;;211674;1311;25604;-59
2022/12/23 11:09:32;;;;;;;168.50;57.70;;;23.00;54.90;;;;;;211222;1313;24212;-61
2022/12/23 11:14:51;;;;;;;157.00;56.60;;;23.00;55.20;;;;;;211751;1297;22491;-59
2022/12/23 11:20:16;;;;;;;148.90;53.30;;;23.00;55.80;;;;;;211784;1300;24439;-61
2022/12/23 11:25:41;;;;;;;144.10;48.60;;;23.00;56.00;;;;;;211577;1310;24210;-61
2022/12/23 11:30:54;;;;;;;132.90;49.70;;;23.00;56.20;;;;;;211714;1304;22490;-57
2022/12/23 11:36:13;;;;;;;119.20;46.90;;;23.00;56.60;;;;;;211643;1310;24450;-59
2022/12/23 11:41:21;;;;;;;111.20;41.10;;;23.00;57.20;;;;;;211795;1313;22491;-62
2022/12/23 11:46:29;;;;;;;115.70;44.30;;;22.90;57.70;;;;;;211956;1307;23880;-61
2022/12/23 11:51:33;;;;;;;103.70;40.70;;;22.90;57.30;;;;;;211859;1301;22811;-63
2022/12/23 11:56:39;;;;;;;111.70;40.40;;;22.80;57.90;;;;;;212000;1307;23906;-60
2022/12/23 12:01:47;;;;;;;101.20;39.20;;;22.80;57.80;;;;;;211783;1306;24397;-62
2022/12/23 12:06:53;;;;;;;100.10;39.90;;;22.70;58.00;;;;;;211862;1315;22848;-61
2022/12/23 12:12:14;;;;;;;101.00;38.20;;;22.70;58.30;;;;;;211854;1310;236130;-62
2022/12/23 12:17:30;;;;;;;102.70;37.60;;;22.70;58.30;;;;;;211936;1303;23897;-60
2022/12/23 12:22:45;;;;;;;93.60;35.10;;;22.60;58.50;;;;;;211779;1310;24250;-60
2022/12/23 12:28:10;;;;;;;90.80;36.80;;;22.50;58.40;;;;;;211693;1307;22484;-61
2022/12/23 12:33:34;;;;;;;84.10;35.10;;;22.50;58.90;;;;;;211689;1308;22725;-60
2022/12/23 12:38:39;;;;;;;72.60;31.30;;;22.50;58.80;;;;;;211690;1295;22564;-62
2022/12/23 12:43:51;;;;;;;80.50;32.70;;;22.50;58.90;;;;;;212407;1310;22497;-59
2022/12/23 12:49:12;;;;;;;77.70;29.30;;;22.50;59.00;;;;;;211577;1299;22535;-60
2022/12/23 12:54:35;;;;;;;80.20;31.70;;;22.50;58.70;;;;;;212246;1300;26237;-62
2022/12/23 12:59:40;;;;;;;78.50;29.40;;;22.50;59.10;;;;;;211995;1300;22587;-61
2022/12/23 13:04:56;;;;;;;76.00;29.90;;;22.40;58.90;;;;;;211717;1310;22658;-61
2022/12/23 13:10:19;;;;;;;64.50;25.90;;;22.40;58.80;;;;;;212122;1296;22495;-62
2022/12/23 13:15:33;;;;;;;70.60;28.20;;;22.40;59.00;;;;;;212046;1294;23958;-60
2022/12/23 13:21:05;;;;;;;63.30;26.60;;;22.30;59.10;;;;;;211728;1311;24049;-62
2022/12/23 13:26:36;;;;;;;62.40;24.00;;;22.30;59.20;;;;;;211916;1292;22743;-59
2022/12/23 13:31:51;;;;;;;59.70;25.40;;;22.30;59.50;;;;;;211924;1310;22492;-61
2022/12/23 13:37:02;;;;;;;56.00;24.30;;;22.20;59.90;;;;;;212227;1289;24440;-63
2022/12/23 13:42:11;;;;;;;73.20;30.00;;;22.20;60.10;;;;;;212160;1308;25470;-61
2022/12/23 13:47:32;;;;;;;180.80;80.20;;;22.20;59.60;;;;;;211984;1296;22473;-62
2022/12/23 13:53:03;;;;;;;155.10;73.90;;;22.00;59.40;;;;;;211881;1315;24309;-64
2022/12/23 13:58:21;;;;;;;134.20;60.50;;;22.00;58.30;;;;;;212047;1315;22542;-61
2022/12/23 14:03:32;;;;;;;129.00;59.50;;;22.00;58.30;;;;;;211935;1309;24257;-62
2022/12/23 14:08:41;;;;;;;121.20;51.20;;;22.00;58.20;;;;;;211860;1315;22624;-65
2022/12/23 14:13:48;;;;;;;111.70;49.10;;;22.00;58.30;;;;;;211814;1302;22489;-62
2022/12/23 14:18:58;;;;;;;101.20;48.40;;;22.00;57.80;;;;;;211819;1309;22493;-59
2022/12/23 14:24:33;;;;;;;102.00;46.60;;;22.00;58.10;;;;;;212217;1313;22714;-62
2022/12/23 14:30:08;;;;;;;102.70;47.20;;;21.90;58.20;;;;;;212029;1315;22595;-61
2022/12/23 14:35:31;;;;;;;87.00;44.10;;;21.90;58.10;;;;;;212133;1301;22725;-62
2022/12/23 14:40:44;;;;;;;88.10;40.80;;;21.90;58.30;;;;;;211898;1311;23340;-60
2022/12/23 14:45:56;;;;;;;87.00;40.00;;;21.90;58.50;;;;;;211742;1316;22559;-60
2022/12/23 14:51:37;;;;;;;80.30;39.90;;;21.90;58.60;;;;;;212068;1295;22484;-62
2022/12/23 14:57:02;;;;;;;81.40;39.90;;;21.90;59.10;;;;;;211926;1302;24256;-61
2022/12/23 15:02:32;;;;;;;75.10;37.50;;;21.90;58.80;;;;;;212077;1304;25667;-62
2022/12/23 15:07:39;;;;;;;69.70;33.80;;;21.90;58.90;;;;;;211917;1311;23200;-60
2022/12/23 15:12:54;;;;;;;72.40;35.70;;;21.80;59.40;;;;;;211888;1310;22542;-62
2022/12/23 15:18:04;;;;;;;74.80;36.10;;;21.80;60.30;;;;;;212030;1312;25411;-62
2022/12/23 15:23:13;;;;;;;73.60;35.70;;;21.90;59.90;;;;;;212073;1315;22756;-60
2022/12/23 15:28:29;;;;;;;63.90;31.70;;;21.80;60.10;;;;;;212167;1296;22506;-60
2022/12/23 15:33:34;;;;;;;62.90;32.30;;;21.90;60.60;;;;;;211582;1310;22733;-61
2022/12/23 15:39:00;;;;;;;67.90;34.00;;;21.90;61.30;;;;;;212005;1315;25154;-62
2022/12/23 15:44:12;;;;;;;62.80;31.70;;;21.90;61.30;;;;;;211930;1305;22486;-60
2022/12/23 15:49:19;;;;;;;60.00;30.10;;;21.80;61.10;;;;;;211980;1304;22492;-60
2022/12/23 15:54:32;;;;;;;58.50;29.60;;;21.80;61.80;;;;;;211798;1299;22499;-58
2022/12/23 15:59:37;;;;;;;55.60;28.60;;;21.80;62.30;;;;;;211765;1303;24235;-59
2022/12/23 16:04:42;;;;;;;56.50;29.20;;;21.80;62.10;;;;;;211909;1309;22502;-60
2022/12/23 16:09:46;;;;;;;60.50;30.00;;;21.80;61.90;;;;;;211716;1296;25501;-56
2022/12/23 16:15:01;;;;;;;59.20;27.50;;;21.80;61.80;;;;;;211820;1310;22491;-61
2022/12/23 16:20:14;;;;;;;48.50;25.90;;;21.70;61.40;;;;;;211267;1312;22651;-60
2022/12/23 16:25:30;;;;;;;50.20;23.10;;;21.70;61.50;;;;;;211458;1313;22672;-58
2022/12/23 16:30:45;;;;;;;47.10;24.70;;;21.70;61.00;;;;;;211673;1316;22919;-57
2022/12/23 16:35:49;;;;;;;48.00;24.80;;;21.70;61.30;;;;;;211856;1302;23959;-56
2022/12/23 16:40:55;;;;;;;44.40;21.90;;;21.70;61.10;;;;;;211686;1287;24230;-56
2022/12/23 16:45:59;;;;;;;39.90;21.10;;;21.70;61.00;;;;;;211458;1317;24312;-56
2022/12/23 16:51:17;;;;;;;36.70;19.80;;;21.60;61.20;;;;;;211921;1316;25576;-58
2022/12/23 16:56:25;;;;;;;36.00;17.30;;;21.60;60.40;;;;;;211667;1300;22607;-59
2022/12/23 17:01:36;;;;;;;29.00;15.60;;;21.60;60.20;;;;;;211512;1296;22511;-58
2022/12/23 17:06:40;;;;;;;32.70;15.20;;;21.50;58.80;;;;;;211743;1303;22488;-59
2022/12/23 17:11:47;;;;;;;28.30;14.80;;;21.50;59.10;;;;;;211460;1309;24256;-59
2022/12/23 17:16:51;;;;;;;26.60;13.80;;;21.50;58.80;;;;;;212233;1315;26552;-56
2022/12/23 17:22:01;;;;;;;22.10;12.30;;;21.50;58.00;;;;;;211705;1312;24177;-59
2022/12/23 17:27:14;;;;;;;17.00;9.60;;;21.50;57.60;;;;;;212083;1301;23585;-57
2022/12/23 17:32:18;;;;;;;19.80;11.50;;;21.40;57.30;;;;;;211716;1309;22476;-57
2022/12/23 17:37:23;;;;;;;21.20;11.10;;;21.40;58.20;;;;;;211823;1314;23891;-55
2022/12/23 17:42:27;;;;;;;20.10;10.60;;;21.40;58.40;;;;;;211702;1303;22682;-58
2022/12/23 17:47:31;;;;;;;18.30;10.00;;;21.40;58.80;;;;;;211975;1315;22483;-55
2022/12/23 17:52:36;;;;;;;20.30;9.10;;;21.40;58.30;;;;;;211595;1315;22624;-57
2022/12/23 17:57:40;;;;;;;16.70;8.60;;;21.40;58.80;;;;;;211810;1315;22508;-57
2022/12/23 18:02:46;;;;;;;17.10;9.30;;;21.40;59.10;;;;;;211972;1299;25680;-58
2022/12/23 18:07:52;;;;;;;20.40;9.20;;;21.40;59.40;;;;;;211971;1290;22490;-61
2022/12/23 18:13:03;;;;;;;15.50;8.80;;;21.40;59.60;;;;;;212093;1311;22495;-58
2022/12/23 18:18:19;;;;;;;17.60;9.50;;;21.60;62.20;;;;;;211861;1299;22499;-58
2022/12/23 18:23:35;;;;;;;13.50;7.90;;;21.60;62.20;;;;;;211704;1312;22489;-57
2022/12/23 18:28:41;;;;;;;15.80;8.10;;;21.70;60.40;;;;;;211828;1302;22494;-58
2022/12/23 18:33:45;;;;;;;16.80;8.00;;;21.70;60.50;;;;;;211783;1303;25258;-60
2022/12/23 18:38:51;;;;;;;16.40;8.10;;;21.60;60.60;;;;;;211932;1296;23116;-58
2022/12/23 18:43:55;;;;;;;15.40;8.70;;;21.60;60.90;;;;;;211856;1313;22477;-57
2022/12/23 18:48:59;;;;;;;14.60;8.00;;;21.60;61.10;;;;;;212067;1300;22554;-57
2022/12/23 18:54:03;;;;;;;13.00;8.00;;;21.50;61.80;;;;;;211962;1317;22480;-59
2022/12/23 18:59:17;;;;;;;14.40;7.90;;;21.50;62.30;;;;;;211936;1315;22553;-59
2022/12/23 19:04:31;;;;;;;15.20;7.00;;;21.50;62.50;;;;;;211832;1312;24256;-59
2022/12/23 19:09:35;;;;;;;18.40;7.50;;;21.40;62.10;;;;;;211818;1303;22490;-56
2022/12/23 19:14:40;;;;;;;13.40;6.50;;;21.50;62.80;;;;;;211991;1314;22645;-58
2022/12/23 19:19:44;;;;;;;12.70;6.70;;;21.50;62.60;;;;;;212001;1302;24278;-57
2022/12/23 19:24:48;;;;;;;104.40;30.90;;;21.50;62.60;;;;;;211993;1294;22582;-57
2022/12/23 19:30:12;;;;;;;77.10;22.80;;;21.60;62.40;;;;;;212191;1311;24261;-58
2022/12/23 19:35:16;;;;;;;59.10;18.90;;;21.60;63.20;;;;;;212020;1309;22547;-58
2022/12/23 19:40:21;;;;;;;49.50;16.20;;;21.60;63.50;;;;;;211995;1312;22631;-56
2022/12/23 19:45:25;;;;;;;44.60;15.00;;;21.60;63.30;;;;;;211831;1303;25375;-57
2022/12/23 19:50:29;;;;;;;45.50;14.80;;;21.60;63.90;;;;;;211891;1317;22489;-59
2022/12/23 19:55:33;;;;;;;35.80;13.00;;;21.50;63.30;;;;;;211937;1310;24318;-57
2022/12/23 20:00:37;;;;;;;45.10;15.00;;;21.50;63.50;;;;;;211990;1316;24254;-58
2022/12/23 20:05:47;;;;;;;45.60;15.50;;;21.60;63.40;;;;;;212193;1317;24231;-66
2022/12/23 20:11:04;;;;;;;41.70;13.90;;;21.60;63.60;;;;;;212098;1302;22490;-63
2022/12/23 20:16:11;;;;;;;29.20;11.00;;;21.50;64.10;;;;;;212083;1296;22601;-63
2022/12/23 20:21:15;;;;;;;27.00;11.20;;;21.40;63.50;;;;;;211730;1299;22484;-63
2022/12/23 20:26:20;;;;;;;28.70;9.70;;;21.40;63.70;;;;;;212046;1313;25255;-60
2022/12/23 20:31:30;;;;;;;29.40;10.90;;;21.50;63.80;;;;;;211996;1296;24391;-58
2022/12/23 20:36:35;;;;;;;26.20;8.40;;;21.50;63.70;;;;;;212043;1303;23924;-62
2022/12/23 20:41:39;;;;;;;25.90;9.70;;;21.50;63.70;;;;;;211936;1315;25384;-61
2022/12/23 20:46:44;;;;;;;25.60;8.90;;;21.50;63.90;;;;;;211841;1312;22493;-62
2022/12/23 20:51:48;;;;;;;25.20;7.90;;;21.50;63.70;;;;;;212096;1297;22508;-62
2022/12/23 20:56:52;;;;;;;18.90;8.20;;;21.50;63.80;;;;;;211595;1305;22542;-62
2022/12/23 21:01:57;;;;;;;19.40;8.20;;;21.50;64.30;;;;;;212159;1304;22622;-63
2022/12/23 21:07:02;;;;;;;16.60;7.00;;;21.50;64.70;;;;;;212070;1303;22772;-61
2022/12/23 21:12:06;;;;;;;18.80;7.00;;;21.50;64.60;;;;;;212174;1304;22526;-62
2022/12/23 21:17:12;;;;;;;24.50;8.70;;;21.50;65.40;;;;;;212486;1304;24296;-60
2022/12/23 21:22:25;;;;;;;19.20;8.30;;;21.50;65.70;;;;;;211953;1315;22469;-60
2022/12/23 21:27:29;;;;;;;18.70;7.30;;;21.60;66.70;;;;;;212005;1313;24045;-62
2022/12/23 21:32:33;;;;;;;23.40;7.50;;;21.50;66.50;;;;;;212078;1310;22567;-59
2022/12/23 21:37:37;;;;;;;18.90;6.90;;;21.50;66.70;;;;;;212012;1302;25158;-60
2022/12/23 21:42:41;;;;;;;18.90;8.50;;;21.50;66.80;;;;;;211823;1306;22889;-57
2022/12/23 21:47:45;;;;;;;18.00;7.50;;;21.50;66.30;;;;;;217703;1315;22501;-60
2022/12/23 21:52:49;;;;;;;18.90;6.90;;;21.50;66.10;;;;;;212505;1302;22472;-61
2022/12/23 21:57:53;;;;;;;18.10;7.50;;;21.60;65.80;;;;;;212099;1313;22488;-59
2022/12/23 22:02:57;;;;;;;19.20;8.00;;;21.50;65.70;;;;;;212095;1315;25357;-58
2022/12/23 22:08:01;;;;;;;17.80;7.70;;;21.40;65.50;;;;;;212080;1309;22567;-61
2022/12/23 22:13:05;;;;;;;20.30;8.10;;;21.40;65.10;;;;;;212058;1306;24373;-60
2022/12/23 22:18:09;;;;;;;16.10;7.30;;;21.50;64.80;;;;;;212132;1303;24437;-60
2022/12/23 22:23:13;;;;;;;15.50;7.80;;;21.50;64.50;;;;;;211894;1305;22478;-61
2022/12/23 22:28:18;;;;;;;22.20;7.80;;;21.40;64.40;;;;;;212197;1315;22611;-61
2022/12/23 22:33:24;;;;;;;27.00;9.80;;;21.40;65.80;;;;;;212286;1300;22506;-61
2022/12/23 22:38:28;;;;;;;22.80;8.90;;;21.50;67.60;;;;;;212187;1300;22685;-59
2022/12/23 22:43:32;;;;;;;22.70;9.80;;;21.50;68.70;;;;;;212342;1309;24250;-61
2022/12/23 22:48:36;;;;;;;21.20;8.60;;;21.50;68.90;;;;;;212030;1309;24362;-61
2022/12/23 22:53:41;;;;;;;23.40;9.00;;;21.50;68.60;;;;;;212054;1315;25417;-61
2022/12/23 22:58:46;;;;;;;19.70;8.90;;;21.50;68.10;;;;;;211956;1306;24255;-62
2022/12/23 23:03:55;;;;;;;22.50;9.10;;;21.50;67.90;;;;;;211798;1312;23861;-61
2022/12/23 23:09:00;;;;;;;19.20;8.70;;;21.40;67.70;;;;;;212188;1305;22532;-60
2022/12/23 23:14:05;;;;;;;23.90;8.00;;;21.40;67.60;;;;;;212152;1306;25397;-59
2022/12/23 23:19:10;;;;;;;26.50;9.70;;;21.40;67.60;;;;;;211975;1306;22640;-58
2022/12/23 23:24:14;;;;;;;21.10;8.60;;;21.40;67.20;;;;;;212112;1296;24250;-56
2022/12/23 23:29:18;;;;;;;18.10;8.20;;;21.30;66.90;;;;;;211892;1316;22728;-60
2022/12/23 23:34:22;;;;;;;15.40;7.50;;;21.30;66.90;;;;;;211977;1303;23089;-61
2022/12/23 23:39:26;;;;;;;16.30;7.20;;;21.30;67.10;;;;;;211893;1312;22497;-58
2022/12/23 23:44:30;;;;;;;16.90;7.90;;;21.30;67.20;;;;;;212093;1315;22511;-61
2022/12/23 23:49:34;;;;;;;20.50;7.90;;;21.30;66.30;;;;;;212230;1309;22480;-61
2022/12/23 23:54:38;;;;;;;20.60;8.20;;;21.30;66.90;;;;;;212074;1314;22606;-59
2022/12/23 23:59:42;;;;;;;15.50;7.40;;;21.30;67.80;;;;;;211891;1317;22478;-61
